THA1 SKRG-SKSM
Flight info
| Callsign | THA1 |
|---|---|
| Flight time | N/A |
| Altitude | 37000 |
| Route | LLIXI2A BIVIG UW3 MGN DCT DARNI DARNI1C |
| Aircraft | B788/H-SDE1E2E3FGHIJ2J3J4J5M1RWXY/LB1D1 |
Departure
| Time | 2026-04-22 08:16 |
|---|---|
| Airport | Jose Maria Córdova International Airport (SKRG) |
Arrival
| Time | N/A |
|---|---|
| Airport | Simón Bolívar International Airport (SKSM) |
| Time | Latitude | Longitude | Altitude | Speed | Heading |
|---|---|---|---|---|---|
| 2026-04-22 07:55 | 6.17204 | -75.42691 | 7024 ft | 0 kts | 246° |
| 2026-04-22 08:09 | 6.17210 | -75.42674 | 7025 ft | 4 kts | 251° |
| 2026-04-22 08:09 | 6.17216 | -75.42648 | 7026 ft | 4 kts | 269° |
| 2026-04-22 08:09 | 6.17210 | -75.42626 | 7024 ft | 4 kts | 304° |
| 2026-04-22 08:09 | 6.17197 | -75.42618 | 7022 ft | 2 kts | 358° |
| 2026-04-22 08:10 | 6.17196 | -75.42618 | 7022 ft | 0 kts | 359° |
| 2026-04-22 08:12 | 6.17205 | -75.42618 | 7023 ft | 3 kts | 359° |
| 2026-04-22 08:12 | 6.17243 | -75.42619 | 7023 ft | 8 kts | 359° |
| 2026-04-22 08:12 | 6.17314 | -75.42620 | 7024 ft | 13 kts | 359° |
| 2026-04-22 08:12 | 6.17407 | -75.42604 | 7027 ft | 13 kts | 34° |
| 2026-04-22 08:13 | 6.17495 | -75.42539 | 7024 ft | 17 kts | 35° |
| 2026-04-22 08:13 | 6.17590 | -75.42491 | 7029 ft | 13 kts | 0° |
| 2026-04-22 08:13 | 6.17696 | -75.42491 | 7029 ft | 17 kts | 1° |
| 2026-04-22 08:13 | 6.17825 | -75.42492 | 7035 ft | 20 kts | 359° |
| 2026-04-22 08:14 | 6.17972 | -75.42492 | 7036 ft | 21 kts | 10° |
| 2026-04-22 08:14 | 6.18016 | -75.42444 | 7039 ft | 4 kts | 85° |
| 2026-04-22 08:14 | 6.18016 | -75.42441 | 7039 ft | 0 kts | 86° |
| 2026-04-22 08:14 | 6.18016 | -75.42440 | 7039 ft | 1 kts | 86° |
| 2026-04-22 08:15 | 6.18017 | -75.42413 | 7039 ft | 6 kts | 88° |
| 2026-04-22 08:15 | 6.18019 | -75.42346 | 7039 ft | 13 kts | 88° |
| 2026-04-22 08:15 | 6.18008 | -75.42313 | 7038 ft | 1 kts | 167° |
| 2026-04-22 08:15 | 6.17964 | -75.42318 | 7037 ft | 27 kts | 184° |
| 2026-04-22 08:16 | 6.17475 | -75.42319 | 7029 ft | 112 kts | 179° |
| 2026-04-22 08:16 | 6.16427 | -75.42313 | 6992 ft | 187 kts | 180° |
| 2026-04-22 08:16 | 6.15069 | -75.42321 | 8048 ft | 187 kts | 182° |
| 2026-04-22 08:16 | 6.13801 | -75.42295 | 9160 ft | 187 kts | 179° |
| 2026-04-22 08:17 | 6.12421 | -75.42282 | 9742 ft | 212 kts | 180° |
| 2026-04-22 08:17 | 6.10852 | -75.42169 | 9974 ft | 235 kts | 169° |
| 2026-04-22 08:17 | 6.09301 | -75.41656 | 9974 ft | 236 kts | 155° |
| 2026-04-22 08:17 | 6.07898 | -75.40769 | 10113 ft | 241 kts | 141° |
| 2026-04-22 08:18 | 6.06724 | -75.39546 | 10423 ft | 245 kts | 127° |
| 2026-04-22 08:18 | 6.05893 | -75.38080 | 10480 ft | 242 kts | 112° |
| 2026-04-22 08:18 | 6.05445 | -75.36459 | 10480 ft | 240 kts | 98° |
| 2026-04-22 08:18 | 6.05397 | -75.34790 | 10476 ft | 240 kts | 84° |
| 2026-04-22 08:19 | 6.05755 | -75.33152 | 10558 ft | 241 kts | 70° |
| 2026-04-22 08:19 | 6.06503 | -75.31643 | 11013 ft | 242 kts | 57° |
| 2026-04-22 08:19 | 6.07588 | -75.30341 | 11922 ft | 244 kts | 46° |
| 2026-04-22 08:19 | 6.08758 | -75.29090 | 12992 ft | 248 kts | 47° |
| 2026-04-22 08:20 | 6.09938 | -75.27828 | 13997 ft | 253 kts | 46° |
| 2026-04-22 08:20 | 6.11302 | -75.26693 | 14871 ft | 259 kts | 23° |
| 2026-04-22 08:20 | 6.13117 | -75.26309 | 15456 ft | 278 kts | 4° |
| 2026-04-22 08:20 | 6.15121 | -75.26170 | 15991 ft | 300 kts | 3° |
| 2026-04-22 08:21 | 6.17283 | -75.26035 | 16514 ft | 322 kts | 4° |
| 2026-04-22 08:21 | 6.19592 | -75.25858 | 16994 ft | 344 kts | 4° |
| 2026-04-22 08:21 | 6.22052 | -75.25656 | 17439 ft | 366 kts | 4° |
| 2026-04-22 08:21 | 6.23766 | -75.25521 | 17700 ft | 380 kts | 4° |
| 2026-04-22 08:22 | 6.26470 | -75.25314 | 18128 ft | 397 kts | 4° |
| 2026-04-22 08:22 | 6.29259 | -75.25117 | 18856 ft | 405 kts | 4° |
| 2026-04-22 08:22 | 6.32087 | -75.24892 | 19581 ft | 410 kts | 4° |
| 2026-04-22 08:22 | 6.34947 | -75.24662 | 20237 ft | 414 kts | 4° |
| 2026-04-22 08:23 | 6.37846 | -75.24442 | 20967 ft | 419 kts | 4° |
| 2026-04-22 08:23 | 6.40475 | -75.24245 | 21610 ft | 423 kts | 4° |
| 2026-04-22 08:23 | 6.43425 | -75.24018 | 22310 ft | 428 kts | 4° |
| 2026-04-22 08:23 | 6.45457 | -75.23860 | 22775 ft | 431 kts | 4° |
| 2026-04-22 08:24 | 6.48002 | -75.23662 | 23324 ft | 435 kts | 4° |
| 2026-04-22 08:24 | 6.51029 | -75.23431 | 23938 ft | 439 kts | 4° |
| 2026-04-22 08:24 | 6.54095 | -75.23196 | 24477 ft | 443 kts | 4° |
| 2026-04-22 08:24 | 6.57182 | -75.22958 | 25015 ft | 447 kts | 4° |
| 2026-04-22 08:25 | 6.60300 | -75.22717 | 25529 ft | 450 kts | 4° |
| 2026-04-22 08:25 | 6.63441 | -75.22476 | 26049 ft | 454 kts | 4° |
| 2026-04-22 08:25 | 6.66126 | -75.22270 | 26477 ft | 457 kts | 4° |
| 2026-04-22 08:25 | 6.69308 | -75.22025 | 26990 ft | 460 kts | 4° |
| 2026-04-22 08:26 | 6.72478 | -75.21781 | 27474 ft | 464 kts | 4° |
| 2026-04-22 08:26 | 6.75709 | -75.21532 | 27961 ft | 468 kts | 4° |
| 2026-04-22 08:26 | 6.78971 | -75.21281 | 28407 ft | 471 kts | 4° |
| 2026-04-22 08:26 | 6.82256 | -75.21028 | 28831 ft | 475 kts | 4° |
| 2026-04-22 08:27 | 6.85080 | -75.20810 | 29182 ft | 478 kts | 4° |
| 2026-04-22 08:27 | 6.88096 | -75.20578 | 29666 ft | 479 kts | 4° |
| 2026-04-22 08:27 | 6.91410 | -75.20323 | 30247 ft | 478 kts | 4° |
| 2026-04-22 08:27 | 6.94727 | -75.20067 | 30785 ft | 477 kts | 4° |
| 2026-04-22 08:28 | 6.98034 | -75.19812 | 31286 ft | 476 kts | 4° |
| 2026-04-22 08:28 | 7.01328 | -75.19558 | 31804 ft | 474 kts | 5° |
| 2026-04-22 08:28 | 7.04597 | -75.19122 | 32298 ft | 473 kts | 9° |
| 2026-04-22 08:28 | 7.07848 | -75.18624 | 32782 ft | 472 kts | 9° |
| 2026-04-22 08:29 | 7.11054 | -75.18141 | 33290 ft | 471 kts | 9° |
| 2026-04-22 08:29 | 7.14295 | -75.17654 | 33796 ft | 470 kts | 9° |
| 2026-04-22 08:29 | 7.17526 | -75.17165 | 34273 ft | 469 kts | 9° |
| 2026-04-22 08:29 | 7.20760 | -75.16673 | 34709 ft | 468 kts | 9° |
| 2026-04-22 08:30 | 7.23979 | -75.16185 | 35126 ft | 467 kts | 9° |
| 2026-04-22 08:30 | 7.27195 | -75.15699 | 35530 ft | 467 kts | 9° |
| 2026-04-22 08:30 | 7.30412 | -75.15212 | 35915 ft | 466 kts | 9° |
| 2026-04-22 08:30 | 7.33621 | -75.14725 | 36329 ft | 465 kts | 9° |
| 2026-04-22 08:31 | 7.36825 | -75.14239 | 36691 ft | 465 kts | 9° |
| 2026-04-22 08:31 | 7.39992 | -75.13760 | 36998 ft | 466 kts | 9° |
| 2026-04-22 08:32 | 7.49551 | -75.12311 | 36991 ft | 461 kts | 9° |
| 2026-04-22 08:32 | 7.55918 | -75.11345 | 36989 ft | 462 kts | 9° |
| 2026-04-22 08:33 | 7.62234 | -75.10387 | 36988 ft | 462 kts | 9° |
| 2026-04-22 08:33 | 7.68596 | -75.09422 | 36969 ft | 461 kts | 9° |
| 2026-04-22 08:34 | 7.74962 | -75.08452 | 36970 ft | 464 kts | 9° |
| 2026-04-22 08:34 | 7.81339 | -75.07465 | 36955 ft | 463 kts | 9° |
| 2026-04-22 08:35 | 7.87667 | -75.06494 | 36958 ft | 463 kts | 9° |
| 2026-04-22 08:35 | 7.94035 | -75.05512 | 36943 ft | 463 kts | 9° |
| 2026-04-22 08:36 | 8.00408 | -75.04531 | 36946 ft | 463 kts | 9° |
| 2026-04-22 08:36 | 8.06795 | -75.03546 | 36936 ft | 464 kts | 9° |
| 2026-04-22 08:37 | 8.13192 | -75.02560 | 36936 ft | 466 kts | 9° |
| 2026-04-22 08:37 | 8.19595 | -75.01573 | 36933 ft | 465 kts | 9° |
| 2026-04-22 08:38 | 8.25987 | -75.00587 | 36925 ft | 464 kts | 9° |
| 2026-04-22 08:38 | 8.32377 | -74.99601 | 36923 ft | 464 kts | 9° |
| 2026-04-22 08:39 | 8.38723 | -74.98622 | 36918 ft | 463 kts | 9° |
| 2026-04-22 08:39 | 8.45104 | -74.97636 | 36917 ft | 464 kts | 9° |
| 2026-04-22 08:40 | 8.51508 | -74.96647 | 36921 ft | 465 kts | 9° |
| 2026-04-22 08:40 | 8.57912 | -74.95658 | 36919 ft | 466 kts | 9° |
| 2026-04-22 08:41 | 8.64284 | -74.94673 | 36917 ft | 466 kts | 9° |
| 2026-04-22 08:41 | 8.70691 | -74.93683 | 36918 ft | 466 kts | 9° |
| 2026-04-22 08:42 | 8.77097 | -74.92692 | 36917 ft | 466 kts | 9° |
| 2026-04-22 08:42 | 8.83505 | -74.91701 | 36914 ft | 465 kts | 9° |
| 2026-04-22 08:43 | 8.89910 | -74.90709 | 36914 ft | 465 kts | 9° |
| 2026-04-22 08:43 | 8.96312 | -74.89718 | 36915 ft | 465 kts | 9° |
| 2026-04-22 08:44 | 9.02531 | -74.88755 | 36914 ft | 465 kts | 9° |
| 2026-04-22 08:44 | 9.08785 | -74.87209 | 36925 ft | 463 kts | 21° |
| 2026-04-22 08:45 | 9.14797 | -74.84834 | 36924 ft | 463 kts | 20° |
| 2026-04-22 08:45 | 9.20934 | -74.82848 | 36919 ft | 466 kts | 19° |
| 2026-04-22 08:46 | 9.27056 | -74.80683 | 36921 ft | 464 kts | 20° |
| 2026-04-22 08:46 | 9.33173 | -74.78596 | 36921 ft | 464 kts | 19° |
| 2026-04-22 08:47 | 9.39289 | -74.76483 | 36838 ft | 460 kts | 20° |
| 2026-04-22 08:47 | 9.45213 | -74.74440 | 36692 ft | 440 kts | 19° |
| 2026-04-22 08:48 | 9.50884 | -74.72486 | 36529 ft | 417 kts | 20° |
| 2026-04-22 08:48 | 9.53587 | -74.71550 | 35994 ft | 405 kts | 19° |
| 2026-04-22 08:48 | 9.56227 | -74.70639 | 35358 ft | 397 kts | 19° |
| 2026-04-22 08:48 | 9.58823 | -74.69744 | 34715 ft | 391 kts | 19° |
| 2026-04-22 08:49 | 9.61380 | -74.68861 | 34053 ft | 386 kts | 18° |
| 2026-04-22 08:49 | 9.63909 | -74.67988 | 33322 ft | 381 kts | 18° |
| 2026-04-22 08:49 | 9.66378 | -74.67136 | 32611 ft | 377 kts | 18° |
| 2026-04-22 08:49 | 9.68849 | -74.66282 | 31897 ft | 372 kts | 18° |
| 2026-04-22 08:50 | 9.71286 | -74.65440 | 31207 ft | 368 kts | 19° |
| 2026-04-22 08:50 | 9.73695 | -74.64608 | 30530 ft | 364 kts | 19° |
| 2026-04-22 08:50 | 9.76079 | -74.63784 | 29846 ft | 360 kts | 19° |
| 2026-04-22 08:50 | 9.78430 | -74.62972 | 29094 ft | 355 kts | 19° |
| 2026-04-22 08:51 | 9.80758 | -74.62167 | 28371 ft | 350 kts | 19° |
| 2026-04-22 08:51 | 9.83051 | -74.61374 | 27665 ft | 346 kts | 19° |
| 2026-04-22 08:51 | 9.85312 | -74.60592 | 26979 ft | 341 kts | 19° |
| 2026-04-22 08:51 | 9.87540 | -74.59822 | 26305 ft | 336 kts | 19° |
| 2026-04-22 08:52 | 9.89740 | -74.59062 | 25641 ft | 331 kts | 19° |
| 2026-04-22 08:52 | 9.91909 | -74.58312 | 24995 ft | 327 kts | 19° |
| 2026-04-22 08:52 | 9.94051 | -74.57570 | 24357 ft | 323 kts | 20° |
| 2026-04-22 08:52 | 9.96168 | -74.56838 | 23735 ft | 319 kts | 20° |
| 2026-04-22 08:53 | 9.98261 | -74.56114 | 23026 ft | 315 kts | 20° |
| 2026-04-22 08:53 | 10.00328 | -74.55398 | 22316 ft | 311 kts | 20° |
| 2026-04-22 08:53 | 10.02336 | -74.54703 | 21636 ft | 307 kts | 20° |
| 2026-04-22 08:53 | 10.04347 | -74.54007 | 20948 ft | 303 kts | 19° |
| 2026-04-22 08:54 | 10.06331 | -74.53320 | 20278 ft | 299 kts | 19° |
| 2026-04-22 08:54 | 10.08287 | -74.52642 | 19637 ft | 295 kts | 19° |
| 2026-04-22 08:54 | 10.10219 | -74.51973 | 18991 ft | 292 kts | 19° |
| 2026-04-22 08:54 | 10.12136 | -74.51309 | 18369 ft | 288 kts | 19° |
| 2026-04-22 08:55 | 10.14017 | -74.50658 | 17888 ft | 288 kts | 19° |
| 2026-04-22 08:55 | 10.15940 | -74.49992 | 17383 ft | 294 kts | 19° |
| 2026-04-22 08:55 | 10.17896 | -74.49314 | 16808 ft | 300 kts | 19° |
| 2026-04-22 08:55 | 10.19875 | -74.48629 | 16418 ft | 300 kts | 19° |
| 2026-04-22 08:56 | 10.21862 | -74.47940 | 15918 ft | 304 kts | 19° |
| 2026-04-22 08:56 | 10.23879 | -74.47240 | 15394 ft | 308 kts | 19° |
| 2026-04-22 08:56 | 10.25918 | -74.46533 | 14861 ft | 312 kts | 19° |
| 2026-04-22 08:56 | 10.27962 | -74.45825 | 14323 ft | 316 kts | 19° |
| 2026-04-22 08:57 | 10.30052 | -74.45100 | 13801 ft | 319 kts | 18° |
| 2026-04-22 08:57 | 10.32161 | -74.44369 | 13212 ft | 322 kts | 18° |
| 2026-04-22 08:57 | 10.34285 | -74.43632 | 12657 ft | 323 kts | 18° |
| 2026-04-22 08:57 | 10.36384 | -74.42904 | 12106 ft | 310 kts | 18° |
| 2026-04-22 08:58 | 10.38360 | -74.42218 | 11583 ft | 290 kts | 18° |
| 2026-04-22 08:58 | 10.40217 | -74.41573 | 11111 ft | 274 kts | 18° |
| 2026-04-22 08:58 | 10.41961 | -74.40968 | 10880 ft | 258 kts | 18° |
| 2026-04-22 08:58 | 10.43667 | -74.40376 | 10777 ft | 259 kts | 18° |
| 2026-04-22 08:59 | 10.45367 | -74.39786 | 10689 ft | 259 kts | 18° |
| 2026-04-22 08:59 | 10.47077 | -74.39192 | 10592 ft | 256 kts | 18° |
| 2026-04-22 08:59 | 10.48773 | -74.38602 | 10397 ft | 259 kts | 18° |
| 2026-04-22 08:59 | 10.50469 | -74.38013 | 10116 ft | 256 kts | 18° |
| 2026-04-22 09:00 | 10.52150 | -74.37430 | 9841 ft | 254 kts | 18° |
| 2026-04-22 09:00 | 10.53813 | -74.36854 | 9540 ft | 252 kts | 18° |
| 2026-04-22 09:00 | 10.55474 | -74.36277 | 9259 ft | 251 kts | 18° |
| 2026-04-22 09:00 | 10.57125 | -74.35702 | 8997 ft | 251 kts | 18° |
| 2026-04-22 09:01 | 10.58770 | -74.35131 | 8722 ft | 249 kts | 18° |
| 2026-04-22 09:01 | 10.60408 | -74.34563 | 8455 ft | 248 kts | 18° |
| 2026-04-22 09:01 | 10.62042 | -74.33996 | 8181 ft | 247 kts | 18° |
| 2026-04-22 09:01 | 10.63670 | -74.33428 | 7895 ft | 247 kts | 19° |
| 2026-04-22 09:02 | 10.65293 | -74.32864 | 7644 ft | 246 kts | 19° |
| 2026-04-22 09:02 | 10.66912 | -74.32302 | 7365 ft | 245 kts | 19° |
| 2026-04-22 09:02 | 10.68521 | -74.31742 | 7095 ft | 244 kts | 19° |
| 2026-04-22 09:02 | 10.70129 | -74.31182 | 6823 ft | 243 kts | 19° |
| 2026-04-22 09:03 | 10.71728 | -74.30626 | 6549 ft | 242 kts | 19° |
| 2026-04-22 09:03 | 10.73301 | -74.30080 | 6263 ft | 242 kts | 19° |
| 2026-04-22 09:03 | 10.74890 | -74.29527 | 5998 ft | 241 kts | 19° |
| 2026-04-22 09:03 | 10.76469 | -74.28978 | 5726 ft | 240 kts | 19° |
| 2026-04-22 09:04 | 10.78045 | -74.28429 | 5455 ft | 239 kts | 19° |
| 2026-04-22 09:04 | 10.79613 | -74.27884 | 5183 ft | 238 kts | 19° |
| 2026-04-22 09:04 | 10.81174 | -74.27340 | 4904 ft | 237 kts | 19° |
| 2026-04-22 09:04 | 10.82729 | -74.26799 | 4640 ft | 236 kts | 19° |
| 2026-04-22 09:05 | 10.84275 | -74.26261 | 4366 ft | 234 kts | 19° |
| 2026-04-22 09:05 | 10.85814 | -74.25725 | 4103 ft | 233 kts | 19° |
| 2026-04-22 09:05 | 10.87341 | -74.25194 | 3861 ft | 229 kts | 19° |
| 2026-04-22 09:05 | 10.88775 | -74.24695 | 3753 ft | 205 kts | 19° |
| 2026-04-22 09:06 | 10.90057 | -74.24248 | 3621 ft | 186 kts | 19° |
| 2026-04-22 09:06 | 10.91237 | -74.23838 | 3498 ft | 172 kts | 19° |
| 2026-04-22 09:06 | 10.92358 | -74.23447 | 3397 ft | 170 kts | 19° |
| 2026-04-22 09:06 | 10.93472 | -74.23059 | 3301 ft | 169 kts | 19° |
| 2026-04-22 09:07 | 10.94583 | -74.22699 | 3186 ft | 167 kts | 13° |
| 2026-04-22 09:07 | 10.95359 | -74.22681 | 3057 ft | 169 kts | 358° |
| 2026-04-22 09:07 | 10.96951 | -74.22741 | 2767 ft | 174 kts | 358° |
| 2026-04-22 09:07 | 10.98174 | -74.22766 | 2531 ft | 177 kts | 359° |
| 2026-04-22 09:08 | 10.99421 | -74.22792 | 2296 ft | 181 kts | 359° |
| 2026-04-22 09:08 | 11.00688 | -74.22820 | 2053 ft | 183 kts | 359° |
| 2026-04-22 09:08 | 11.01535 | -74.22838 | 1890 ft | 184 kts | 359° |
| 2026-04-22 09:08 | 11.02824 | -74.22866 | 1643 ft | 185 kts | 359° |
| 2026-04-22 09:09 | 11.04039 | -74.22892 | 1580 ft | 165 kts | 359° |
| 2026-04-22 09:09 | 11.05202 | -74.22917 | 1492 ft | 167 kts | 359° |
| 2026-04-22 09:09 | 11.06346 | -74.22942 | 1235 ft | 166 kts | 359° |
| 2026-04-22 09:09 | 11.07497 | -74.22967 | 905 ft | 165 kts | 359° |
| 2026-04-22 09:10 | 11.08648 | -74.22991 | 564 ft | 165 kts | 0° |
| 2026-04-22 09:10 | 11.09779 | -74.23015 | 320 ft | 162 kts | 360° |
| 2026-04-22 09:10 | 11.10898 | -74.23038 | 115 ft | 160 kts | 1° |
| 2026-04-22 09:10 | 11.11931 | -74.23054 | 35 ft | 123 kts | 358° |
| 2026-04-22 09:11 | 11.12583 | -74.23076 | 34 ft | 68 kts | 357° |